sensor_id;sensor_type;location;lat;lon;timestamp;pressure;altitude;pressure_sealevel;temperature;humidity
70916;BME280;58557;50.982;-3.222;2022-12-15T00:02:18;100337.68;;;2.79;40.83
70916;BME280;58557;50.982;-3.222;2022-12-15T00:04:44;100341.33;;;2.25;40.74
70916;BME280;58557;50.982;-3.222;2022-12-15T00:07:10;100344.07;;;2.37;41.78
70916;BME280;58557;50.982;-3.222;2022-12-15T00:09:35;100346.88;;;3.39;40.79
70916;BME280;58557;50.982;-3.222;2022-12-15T00:12:00;100345.64;;;2.86;40.62
70916;BME280;58557;50.982;-3.222;2022-12-15T00:14:25;100341.28;;;2.74;40.60
70916;BME280;58557;50.982;-3.222;2022-12-15T00:16:50;100338.29;;;2.94;41.03
70916;BME280;58557;50.982;-3.222;2022-12-15T00:19:16;100336.33;;;3.22;40.72
70916;BME280;58557;50.982;-3.222;2022-12-15T00:21:41;100336.94;;;2.12;41.52
70916;BME280;58557;50.982;-3.222;2022-12-15T00:24:07;100333.02;;;2.69;40.76
70916;BME280;58557;50.982;-3.222;2022-12-15T00:26:32;100329.74;;;2.65;41.12
70916;BME280;58557;50.982;-3.222;2022-12-15T00:28:57;100331.35;;;3.33;40.41
70916;BME280;58557;50.982;-3.222;2022-12-15T00:31:24;100328.28;;;3.79;39.52
70916;BME280;58557;50.982;-3.222;2022-12-15T00:33:49;100327.49;;;3.00;38.71
70916;BME280;58557;50.982;-3.222;2022-12-15T00:36:14;100323.22;;;2.99;39.87
70916;BME280;58557;50.982;-3.222;2022-12-15T00:38:40;100326.72;;;2.61;40.55
70916;BME280;58557;50.982;-3.222;2022-12-15T00:41:05;100322.08;;;2.15;41.21
70916;BME280;58557;50.982;-3.222;2022-12-15T00:43:32;100326.17;;;1.97;41.62
70916;BME280;58557;50.982;-3.222;2022-12-15T00:45:55;100326.29;;;2.02;41.72
70916;BME280;58557;50.982;-3.222;2022-12-15T00:48:21;100327.68;;;2.13;40.96
70916;BME280;58557;50.982;-3.222;2022-12-15T00:50:46;100326.98;;;2.54;40.10
70916;BME280;58557;50.982;-3.222;2022-12-15T00:53:11;100329.07;;;2.40;40.67
70916;BME280;58557;50.982;-3.222;2022-12-15T00:55:37;100331.19;;;2.01;41.53
70916;BME280;58557;50.982;-3.222;2022-12-15T00:58:02;100332.77;;;2.17;41.24
70916;BME280;58557;50.982;-3.222;2022-12-15T01:00:28;100336.17;;;2.16;41.46
70916;BME280;58557;50.982;-3.222;2022-12-15T01:02:53;100341.27;;;2.20;40.91
70916;BME280;58557;50.982;-3.222;2022-12-15T01:05:18;100339.42;;;2.14;41.63
70916;BME280;58557;50.982;-3.222;2022-12-15T01:07:43;100343.31;;;1.85;41.09
70916;BME280;58557;50.982;-3.222;2022-12-15T01:10:08;100344.42;;;0.81;42.18
70916;BME280;58557;50.982;-3.222;2022-12-15T01:12:34;100347.57;;;0.69;44.29
70916;BME280;58557;50.982;-3.222;2022-12-15T01:15:00;100343.17;;;1.11;42.40
70916;BME280;58557;50.982;-3.222;2022-12-15T01:17:25;100344.07;;;0.30;45.23
70916;BME280;58557;50.982;-3.222;2022-12-15T01:19:50;100345.71;;;0.03;44.87
70916;BME280;58557;50.982;-3.222;2022-12-15T01:22:16;100345.55;;;0.71;44.13
70916;BME280;58557;50.982;-3.222;2022-12-15T01:24:41;100347.17;;;1.30;41.64
70916;BME280;58557;50.982;-3.222;2022-12-15T01:27:06;100350.53;;;2.04;41.21
70916;BME280;58557;50.982;-3.222;2022-12-15T01:29:32;100351.00;;;2.02;41.28
70916;BME280;58557;50.982;-3.222;2022-12-15T01:31:57;100350.41;;;1.96;40.58
70916;BME280;58557;50.982;-3.222;2022-12-15T01:34:23;100343.50;;;1.32;41.11
70916;BME280;58557;50.982;-3.222;2022-12-15T01:36:48;100342.71;;;2.10;40.52
70916;BME280;58557;50.982;-3.222;2022-12-15T01:39:13;100345.56;;;1.86;39.82
70916;BME280;58557;50.982;-3.222;2022-12-15T01:41:38;100346.97;;;1.89;40.19
70916;BME280;58557;50.982;-3.222;2022-12-15T01:44:14;100348.74;;;2.58;39.65
70916;BME280;58557;50.982;-3.222;2022-12-15T01:46:29;100352.98;;;1.82;40.08
70916;BME280;58557;50.982;-3.222;2022-12-15T01:48:58;100364.00;;;1.49;41.09
70916;BME280;58557;50.982;-3.222;2022-12-15T01:51:25;100370.71;;;1.51;40.77
70916;BME280;58557;50.982;-3.222;2022-12-15T01:53:52;100378.62;;;1.46;40.88
70916;BME280;58557;50.982;-3.222;2022-12-15T01:56:12;100375.16;;;1.71;40.93
70916;BME280;58557;50.982;-3.222;2022-12-15T01:58:40;100379.67;;;1.24;42.61
70916;BME280;58557;50.982;-3.222;2022-12-15T02:01:03;100379.00;;;1.87;41.13
70916;BME280;58557;50.982;-3.222;2022-12-15T02:03:28;100376.42;;;1.80;40.97
70916;BME280;58557;50.982;-3.222;2022-12-15T02:05:54;100376.18;;;2.19;41.33
70916;BME280;58557;50.982;-3.222;2022-12-15T02:08:19;100374.35;;;1.93;40.95
70916;BME280;58557;50.982;-3.222;2022-12-15T02:10:56;100379.37;;;1.95;39.97
70916;BME280;58557;50.982;-3.222;2022-12-15T02:13:14;100385.83;;;1.33;40.78
70916;BME280;58557;50.982;-3.222;2022-12-15T02:15:38;100386.20;;;0.72;40.72
70916;BME280;58557;50.982;-3.222;2022-12-15T02:18:05;100390.25;;;1.35;41.81
70916;BME280;58557;50.982;-3.222;2022-12-15T02:20:38;100387.32;;;2.01;40.58
70916;BME280;58557;50.982;-3.222;2022-12-15T02:23:02;100389.04;;;2.25;39.32
70916;BME280;58557;50.982;-3.222;2022-12-15T02:25:31;100388.27;;;1.93;38.90
70916;BME280;58557;50.982;-3.222;2022-12-15T02:27:49;100390.91;;;1.55;40.53
70916;BME280;58557;50.982;-3.222;2022-12-15T02:30:21;100390.11;;;1.73;40.53
70916;BME280;58557;50.982;-3.222;2022-12-15T02:32:36;100385.54;;;1.15;41.02
70916;BME280;58557;50.982;-3.222;2022-12-15T02:35:02;100390.28;;;1.20;41.05
70916;BME280;58557;50.982;-3.222;2022-12-15T02:37:28;100395.06;;;1.78;40.22
70916;BME280;58557;50.982;-3.222;2022-12-15T02:39:48;100396.16;;;1.69;39.61
70916;BME280;58557;50.982;-3.222;2022-12-15T02:42:14;100389.94;;;1.87;39.84
70916;BME280;58557;50.982;-3.222;2022-12-15T02:44:42;100388.62;;;2.10;40.45
70916;BME280;58557;50.982;-3.222;2022-12-15T02:47:18;100389.75;;;1.65;39.56
70916;BME280;58557;50.982;-3.222;2022-12-15T02:49:36;100387.81;;;1.69;40.05
70916;BME280;58557;50.982;-3.222;2022-12-15T02:52:05;100390.31;;;1.43;40.47
70916;BME280;58557;50.982;-3.222;2022-12-15T02:54:32;100385.22;;;1.47;39.77
70916;BME280;58557;50.982;-3.222;2022-12-15T02:56:54;100377.60;;;2.07;40.29
70916;BME280;58557;50.982;-3.222;2022-12-15T02:59:18;100382.86;;;1.77;39.83
70916;BME280;58557;50.982;-3.222;2022-12-15T03:01:43;100385.32;;;1.64;39.69
70916;BME280;58557;50.982;-3.222;2022-12-15T03:04:06;100384.42;;;1.97;40.09
70916;BME280;58557;50.982;-3.222;2022-12-15T03:06:29;100380.40;;;1.84;39.89
70916;BME280;58557;50.982;-3.222;2022-12-15T03:08:54;100385.64;;;1.52;41.09
70916;BME280;58557;50.982;-3.222;2022-12-15T03:11:20;100384.03;;;2.08;40.61
70916;BME280;58557;50.982;-3.222;2022-12-15T03:13:46;100391.13;;;2.07;39.27
70916;BME280;58557;50.982;-3.222;2022-12-15T03:16:11;100390.39;;;2.05;39.53
70916;BME280;58557;50.982;-3.222;2022-12-15T03:18:37;100392.59;;;1.81;39.10
70916;BME280;58557;50.982;-3.222;2022-12-15T03:21:03;100392.42;;;2.15;39.01
70916;BME280;58557;50.982;-3.222;2022-12-15T03:23:28;100398.55;;;0.32;40.97
70916;BME280;58557;50.982;-3.222;2022-12-15T03:25:53;100396.37;;;1.48;39.29
70916;BME280;58557;50.982;-3.222;2022-12-15T03:28:19;100396.26;;;1.01;39.28
70916;BME280;58557;50.982;-3.222;2022-12-15T03:30:44;100393.89;;;0.78;40.42
70916;BME280;58557;50.982;-3.222;2022-12-15T03:33:09;100396.60;;;1.00;41.34
70916;BME280;58557;50.982;-3.222;2022-12-15T03:35:35;100391.60;;;1.20;40.44
70916;BME280;58557;50.982;-3.222;2022-12-15T03:38:00;100390.64;;;1.12;40.02
70916;BME280;58557;50.982;-3.222;2022-12-15T03:40:25;100396.74;;;1.26;40.71
70916;BME280;58557;50.982;-3.222;2022-12-15T03:42:51;100396.54;;;-0.52;42.14
70916;BME280;58557;50.982;-3.222;2022-12-15T03:45:18;100400.13;;;0.88;40.83
70916;BME280;58557;50.982;-3.222;2022-12-15T03:47:42;100404.91;;;1.32;39.69
70916;BME280;58557;50.982;-3.222;2022-12-15T03:50:09;100405.55;;;1.38;39.65
70916;BME280;58557;50.982;-3.222;2022-12-15T03:52:33;100403.86;;;0.86;39.89
70916;BME280;58557;50.982;-3.222;2022-12-15T03:54:59;100402.78;;;0.84;39.97
70916;BME280;58557;50.982;-3.222;2022-12-15T03:57:24;100398.45;;;0.70;40.05
70916;BME280;58557;50.982;-3.222;2022-12-15T03:59:49;100393.95;;;0.40;41.19
70916;BME280;58557;50.982;-3.222;2022-12-15T04:02:15;100392.71;;;0.36;40.67
70916;BME280;58557;50.982;-3.222;2022-12-15T04:04:41;100392.72;;;-0.54;42.18
70916;BME280;58557;50.982;-3.222;2022-12-15T04:07:07;100398.06;;;0.48;42.89
70916;BME280;58557;50.982;-3.222;2022-12-15T04:09:32;100397.94;;;0.69;41.55
70916;BME280;58557;50.982;-3.222;2022-12-15T04:11:58;100397.23;;;1.20;41.02
70916;BME280;58557;50.982;-3.222;2022-12-15T04:14:23;100396.70;;;0.65;40.95
70916;BME280;58557;50.982;-3.222;2022-12-15T04:16:49;100393.76;;;0.15;40.33
70916;BME280;58557;50.982;-3.222;2022-12-15T04:19:15;100398.09;;;0.86;41.14
70916;BME280;58557;50.982;-3.222;2022-12-15T04:21:40;100397.90;;;-0.68;44.28
70916;BME280;58557;50.982;-3.222;2022-12-15T04:24:06;100404.00;;;0.82;42.21
70916;BME280;58557;50.982;-3.222;2022-12-15T04:26:31;100400.13;;;1.10;40.74
70916;BME280;58557;50.982;-3.222;2022-12-15T04:28:57;100398.41;;;0.49;40.90
70916;BME280;58557;50.982;-3.222;2022-12-15T04:31:25;100397.43;;;0.79;40.88
70916;BME280;58557;50.982;-3.222;2022-12-15T04:33:51;100393.48;;;0.96;40.61
70916;BME280;58557;50.982;-3.222;2022-12-15T04:36:13;100392.28;;;0.25;39.91
70916;BME280;58557;50.982;-3.222;2022-12-15T04:38:38;100392.01;;;0.54;40.73
70916;BME280;58557;50.982;-3.222;2022-12-15T04:41:03;100393.92;;;1.00;39.79
70916;BME280;58557;50.982;-3.222;2022-12-15T04:43:28;100389.21;;;-0.38;42.00
70916;BME280;58557;50.982;-3.222;2022-12-15T04:45:54;100395.02;;;0.67;41.02
70916;BME280;58557;50.982;-3.222;2022-12-15T04:48:20;100394.51;;;0.29;40.49
70916;BME280;58557;50.982;-3.222;2022-12-15T04:50:45;100388.68;;;0.13;40.60
70916;BME280;58557;50.982;-3.222;2022-12-15T04:53:12;100385.65;;;-0.16;41.58
70916;BME280;58557;50.982;-3.222;2022-12-15T04:55:36;100388.62;;;0.69;40.39
70916;BME280;58557;50.982;-3.222;2022-12-15T04:58:05;100384.52;;;0.02;41.55
70916;BME280;58557;50.982;-3.222;2022-12-15T05:00:27;100378.62;;;0.30;42.10
70916;BME280;58557;50.982;-3.222;2022-12-15T05:02:52;100382.99;;;0.28;41.50
70916;BME280;58557;50.982;-3.222;2022-12-15T05:05:18;100382.20;;;0.72;40.48
70916;BME280;58557;50.982;-3.222;2022-12-15T05:07:43;100379.09;;;0.34;40.14
70916;BME280;58557;50.982;-3.222;2022-12-15T05:10:09;100380.06;;;1.06;39.60
70916;BME280;58557;50.982;-3.222;2022-12-15T05:12:34;100377.46;;;1.38;39.23
70916;BME280;58557;50.982;-3.222;2022-12-15T05:14:59;100381.57;;;0.86;41.00
70916;BME280;58557;50.982;-3.222;2022-12-15T05:17:24;100381.48;;;0.40;40.86
70916;BME280;58557;50.982;-3.222;2022-12-15T05:19:50;100384.82;;;0.84;39.45
70916;BME280;58557;50.982;-3.222;2022-12-15T05:22:15;100384.40;;;1.05;39.47
70916;BME280;58557;50.982;-3.222;2022-12-15T05:24:40;100388.66;;;1.07;39.39
70916;BME280;58557;50.982;-3.222;2022-12-15T05:27:06;100391.51;;;1.47;38.51
70916;BME280;58557;50.982;-3.222;2022-12-15T05:29:31;100390.75;;;1.14;38.72
70916;BME280;58557;50.982;-3.222;2022-12-15T05:31:56;100389.26;;;-0.57;40.59
70916;BME280;58557;50.982;-3.222;2022-12-15T05:34:24;100397.00;;;0.69;38.85
70916;BME280;58557;50.982;-3.222;2022-12-15T05:36:48;100401.58;;;1.25;39.22
70916;BME280;58557;50.982;-3.222;2022-12-15T05:39:13;100400.49;;;0.21;38.71
70916;BME280;58557;50.982;-3.222;2022-12-15T05:41:38;100400.71;;;-0.22;39.67
70916;BME280;58557;50.982;-3.222;2022-12-15T05:44:04;100408.45;;;0.84;40.12
70916;BME280;58557;50.982;-3.222;2022-12-15T05:46:29;100404.67;;;0.21;40.68
70916;BME280;58557;50.982;-3.222;2022-12-15T05:48:54;100407.32;;;0.07;40.65
70916;BME280;58557;50.982;-3.222;2022-12-15T05:51:20;100409.09;;;-0.56;40.52
70916;BME280;58557;50.982;-3.222;2022-12-15T05:53:46;100410.37;;;0.58;40.54
70916;BME280;58557;50.982;-3.222;2022-12-15T05:56:13;100410.03;;;-0.37;39.94
70916;BME280;58557;50.982;-3.222;2022-12-15T05:58:36;100414.69;;;0.71;39.99
70916;BME280;58557;50.982;-3.222;2022-12-15T06:01:03;100415.65;;;0.34;40.64
70916;BME280;58557;50.982;-3.222;2022-12-15T06:03:27;100415.25;;;0.18;41.69
70916;BME280;58557;50.982;-3.222;2022-12-15T06:05:53;100414.50;;;-0.47;40.83
70916;BME280;58557;50.982;-3.222;2022-12-15T06:08:19;100410.81;;;-0.16;40.54
70916;BME280;58557;50.982;-3.222;2022-12-15T06:10:51;100410.33;;;-0.07;40.36
70916;BME280;58557;50.982;-3.222;2022-12-15T06:13:10;100407.79;;;0.22;39.81
70916;BME280;58557;50.982;-3.222;2022-12-15T06:15:35;100411.29;;;-0.41;41.42
70916;BME280;58557;50.982;-3.222;2022-12-15T06:18:00;100407.94;;;-0.16;42.58
70916;BME280;58557;50.982;-3.222;2022-12-15T06:20:25;100410.20;;;-0.73;42.34
70916;BME280;58557;50.982;-3.222;2022-12-15T06:22:51;100410.70;;;-0.43;41.21
70916;BME280;58557;50.982;-3.222;2022-12-15T06:25:16;100411.49;;;-0.35;41.77
70916;BME280;58557;50.982;-3.222;2022-12-15T06:27:41;100411.97;;;-0.57;41.46
70916;BME280;58557;50.982;-3.222;2022-12-15T06:30:07;100413.65;;;-0.40;42.10
70916;BME280;58557;50.982;-3.222;2022-12-15T06:32:33;100410.37;;;-0.50;41.63
70916;BME280;58557;50.982;-3.222;2022-12-15T06:34:56;100415.58;;;0.40;40.47
70916;BME280;58557;50.982;-3.222;2022-12-15T06:37:22;100412.43;;;-0.32;41.07
70916;BME280;58557;50.982;-3.222;2022-12-15T06:39:47;100413.48;;;-1.00;40.66
70916;BME280;58557;50.982;-3.222;2022-12-15T06:42:13;100415.69;;;0.08;40.64
70916;BME280;58557;50.982;-3.222;2022-12-15T06:44:38;100418.69;;;0.40;40.81
70916;BME280;58557;50.982;-3.222;2022-12-15T06:47:03;100420.69;;;0.91;39.63
70916;BME280;58557;50.982;-3.222;2022-12-15T06:49:28;100420.30;;;0.30;40.11
70916;BME280;58557;50.982;-3.222;2022-12-15T06:51:54;100419.10;;;-1.24;41.40
70916;BME280;58557;50.982;-3.222;2022-12-15T06:54:20;100417.31;;;-0.41;40.77
70916;BME280;58557;50.982;-3.222;2022-12-15T06:56:45;100419.95;;;0.30;39.77
70916;BME280;58557;50.982;-3.222;2022-12-15T06:59:11;100418.86;;;-0.57;40.42
70916;BME280;58557;50.982;-3.222;2022-12-15T07:01:36;100419.25;;;-0.29;41.00
70916;BME280;58557;50.982;-3.222;2022-12-15T07:04:01;100422.54;;;-0.12;41.72
70916;BME280;58557;50.982;-3.222;2022-12-15T07:06:30;100426.11;;;-0.19;41.56
70916;BME280;58557;50.982;-3.222;2022-12-15T07:08:53;100430.72;;;-0.04;40.83
70916;BME280;58557;50.982;-3.222;2022-12-15T07:11:19;100428.89;;;-0.74;40.76
70916;BME280;58557;50.982;-3.222;2022-12-15T07:13:43;100429.71;;;0.13;41.44
70916;BME280;58557;50.982;-3.222;2022-12-15T07:16:10;100429.76;;;0.05;40.30
70916;BME280;58557;50.982;-3.222;2022-12-15T07:18:34;100431.40;;;-0.06;40.54
70916;BME280;58557;50.982;-3.222;2022-12-15T07:21:02;100433.40;;;0.58;40.06
70916;BME280;58557;50.982;-3.222;2022-12-15T07:23:25;100437.55;;;0.49;40.23
70916;BME280;58557;50.982;-3.222;2022-12-15T07:25:51;100440.09;;;-0.04;39.63
70916;BME280;58557;50.982;-3.222;2022-12-15T07:28:16;100442.46;;;0.17;39.55
70916;BME280;58557;50.982;-3.222;2022-12-15T07:30:41;100444.03;;;0.37;39.19
70916;BME280;58557;50.982;-3.222;2022-12-15T07:33:07;100443.31;;;-0.96;42.85
70916;BME280;58557;50.982;-3.222;2022-12-15T07:35:32;100445.96;;;-0.50;41.45
70916;BME280;58557;50.982;-3.222;2022-12-15T07:37:57;100445.60;;;-0.83;41.02
70916;BME280;58557;50.982;-3.222;2022-12-15T07:40:23;100450.41;;;0.12;40.27
70916;BME280;58557;50.982;-3.222;2022-12-15T07:42:49;100452.12;;;-0.34;40.64
70916;BME280;58557;50.982;-3.222;2022-12-15T07:45:14;100449.28;;;0.60;40.41
70916;BME280;58557;50.982;-3.222;2022-12-15T07:47:39;100449.42;;;0.57;38.97
70916;BME280;58557;50.982;-3.222;2022-12-15T07:50:06;100447.87;;;0.29;39.47
70916;BME280;58557;50.982;-3.222;2022-12-15T07:52:31;100450.26;;;0.05;39.48
70916;BME280;58557;50.982;-3.222;2022-12-15T07:54:56;100453.76;;;-1.05;40.90
70916;BME280;58557;50.982;-3.222;2022-12-15T07:57:22;100453.46;;;-0.30;39.88
70916;BME280;58557;50.982;-3.222;2022-12-15T07:59:47;100453.97;;;-0.57;41.21
70916;BME280;58557;50.982;-3.222;2022-12-15T08:02:12;100459.43;;;0.13;40.96
70916;BME280;58557;50.982;-3.222;2022-12-15T08:04:37;100463.61;;;0.03;39.91
70916;BME280;58557;50.982;-3.222;2022-12-15T08:07:03;100466.45;;;0.18;40.30
70916;BME280;58557;50.982;-3.222;2022-12-15T08:09:28;100469.51;;;0.27;39.82
70916;BME280;58557;50.982;-3.222;2022-12-15T08:11:54;100474.64;;;-0.31;40.90
70916;BME280;58557;50.982;-3.222;2022-12-15T08:14:19;100476.45;;;0.09;39.95
70916;BME280;58557;50.982;-3.222;2022-12-15T08:16:45;100482.27;;;-0.45;41.80
70916;BME280;58557;50.982;-3.222;2022-12-15T08:19:12;100478.43;;;-0.58;41.32
70916;BME280;58557;50.982;-3.222;2022-12-15T08:21:38;100482.24;;;-1.77;42.90
70916;BME280;58557;50.982;-3.222;2022-12-15T08:24:01;100491.34;;;-0.80;42.74
70916;BME280;58557;50.982;-3.222;2022-12-15T08:26:27;100498.17;;;-3.80;46.63
70916;BME280;58557;50.982;-3.222;2022-12-15T08:28:53;100503.05;;;-4.44;49.14
70916;BME280;58557;50.982;-3.222;2022-12-15T08:31:19;100504.90;;;-3.31;47.74
70916;BME280;58557;50.982;-3.222;2022-12-15T08:33:43;100505.56;;;-2.78;47.05
70916;BME280;58557;50.982;-3.222;2022-12-15T08:36:11;100496.89;;;-1.96;45.20
70916;BME280;58557;50.982;-3.222;2022-12-15T08:38:35;100498.74;;;-0.93;44.41
70916;BME280;58557;50.982;-3.222;2022-12-15T08:41:05;100500.44;;;-2.18;44.42
70916;BME280;58557;50.982;-3.222;2022-12-15T08:43:24;100507.90;;;-1.75;45.07
70916;BME280;58557;50.982;-3.222;2022-12-15T08:45:50;100511.92;;;-2.66;46.45
70916;BME280;58557;50.982;-3.222;2022-12-15T08:48:15;100508.91;;;-1.95;46.28
70916;BME280;58557;50.982;-3.222;2022-12-15T08:50:42;100517.07;;;-2.69;48.00
70916;BME280;58557;50.982;-3.222;2022-12-15T08:53:06;100515.15;;;-1.57;46.76
70916;BME280;58557;50.982;-3.222;2022-12-15T08:55:33;100517.29;;;-2.05;45.72
70916;BME280;58557;50.982;-3.222;2022-12-15T08:57:56;100526.62;;;-4.01;48.48
70916;BME280;58557;50.982;-3.222;2022-12-15T09:00:22;100526.35;;;-2.55;49.11
70916;BME280;58557;50.982;-3.222;2022-12-15T09:02:47;100519.66;;;-2.08;46.93
70916;BME280;58557;50.982;-3.222;2022-12-15T09:05:13;100529.98;;;-3.11;50.02
70916;BME280;58557;50.982;-3.222;2022-12-15T09:07:38;100532.48;;;-2.75;50.05
70916;BME280;58557;50.982;-3.222;2022-12-15T09:10:04;100534.89;;;-2.32;48.76
70916;BME280;58557;50.982;-3.222;2022-12-15T09:12:29;100527.62;;;-2.35;47.80
70916;BME280;58557;50.982;-3.222;2022-12-15T09:14:54;100528.44;;;-0.99;45.76
70916;BME280;58557;50.982;-3.222;2022-12-15T09:17:20;100528.02;;;-2.42;50.04
70916;BME280;58557;50.982;-3.222;2022-12-15T09:19:46;100535.47;;;-1.05;46.83
70916;BME280;58557;50.982;-3.222;2022-12-15T09:22:11;100536.18;;;-0.01;45.90
70916;BME280;58557;50.982;-3.222;2022-12-15T09:24:37;100539.75;;;0.02;45.29
70916;BME280;58557;50.982;-3.222;2022-12-15T09:27:03;100543.09;;;1.09;44.65
70916;BME280;58557;50.982;-3.222;2022-12-15T09:29:28;100545.83;;;-0.87;45.65
70916;BME280;58557;50.982;-3.222;2022-12-15T09:31:54;100548.41;;;-0.94;48.64
70916;BME280;58557;50.982;-3.222;2022-12-15T09:34:20;100549.85;;;0.09;45.56
70916;BME280;58557;50.982;-3.222;2022-12-15T09:36:45;100548.08;;;-1.46;47.76
70916;BME280;58557;50.982;-3.222;2022-12-15T09:39:11;100553.72;;;-1.08;47.72
70916;BME280;58557;50.982;-3.222;2022-12-15T09:41:37;100554.58;;;0.62;46.74
70916;BME280;58557;50.982;-3.222;2022-12-15T09:44:03;100554.56;;;2.06;43.05
70916;BME280;58557;50.982;-3.222;2022-12-15T09:46:38;100554.63;;;1.93;43.03
70916;BME280;58557;50.982;-3.222;2022-12-15T09:48:54;100553.25;;;2.35;40.72
70916;BME280;58557;50.982;-3.222;2022-12-15T09:51:25;100557.76;;;3.18;39.47
70916;BME280;58557;50.982;-3.222;2022-12-15T09:53:44;100562.94;;;1.90;41.60
70916;BME280;58557;50.982;-3.222;2022-12-15T09:56:14;100564.69;;;3.07;40.10
70916;BME280;58557;50.982;-3.222;2022-12-15T09:58:41;100566.74;;;3.51;39.35
70916;BME280;58557;50.982;-3.222;2022-12-15T10:01:06;100571.66;;;4.50;38.46
70916;BME280;58557;50.982;-3.222;2022-12-15T10:03:38;100576.50;;;4.80;37.14
70916;BME280;58557;50.982;-3.222;2022-12-15T10:06:01;100575.69;;;4.67;37.22
70916;BME280;58557;50.982;-3.222;2022-12-15T10:08:18;100578.48;;;5.84;36.15
70916;BME280;58557;50.982;-3.222;2022-12-15T10:10:51;100584.51;;;4.82;36.65
70916;BME280;58557;50.982;-3.222;2022-12-15T10:13:13;100581.79;;;5.15;36.45
70916;BME280;58557;50.982;-3.222;2022-12-15T10:15:39;100587.71;;;5.63;36.10
70916;BME280;58557;50.982;-3.222;2022-12-15T10:18:03;100594.63;;;4.44;37.39
70916;BME280;58557;50.982;-3.222;2022-12-15T10:20:27;100594.03;;;5.92;35.52
70916;BME280;58557;50.982;-3.222;2022-12-15T10:22:50;100590.07;;;6.14;35.00
70916;BME280;58557;50.982;-3.222;2022-12-15T10:25:19;100590.44;;;6.23;34.76
70916;BME280;58557;50.982;-3.222;2022-12-15T10:28:00;100588.27;;;5.86;35.38
70916;BME280;58557;50.982;-3.222;2022-12-15T10:30:08;100590.64;;;6.43;33.99
70916;BME280;58557;50.982;-3.222;2022-12-15T10:32:42;100589.85;;;6.93;34.43
70916;BME280;58557;50.982;-3.222;2022-12-15T10:34:57;100586.14;;;6.65;33.21
70916;BME280;58557;50.982;-3.222;2022-12-15T10:37:23;100584.14;;;7.02;32.39
70916;BME280;58557;50.982;-3.222;2022-12-15T10:39:49;100580.97;;;6.79;32.07
70916;BME280;58557;50.982;-3.222;2022-12-15T10:42:18;100574.30;;;7.00;32.28
70916;BME280;58557;50.982;-3.222;2022-12-15T10:44:41;100572.05;;;6.90;32.43
70916;BME280;58557;50.982;-3.222;2022-12-15T10:47:09;100568.64;;;6.52;32.48
70916;BME280;58557;50.982;-3.222;2022-12-15T10:49:31;100569.31;;;6.30;34.19
70916;BME280;58557;50.982;-3.222;2022-12-15T10:51:58;100573.42;;;7.46;32.40
70916;BME280;58557;50.982;-3.222;2022-12-15T10:54:23;100570.84;;;7.47;32.03
70916;BME280;58557;50.982;-3.222;2022-12-15T10:56:49;100563.51;;;6.57;33.70
70916;BME280;58557;50.982;-3.222;2022-12-15T10:59:21;100564.52;;;6.85;32.57
70916;BME280;58557;50.982;-3.222;2022-12-15T11:01:38;100564.69;;;7.35;31.41
70916;BME280;58557;50.982;-3.222;2022-12-15T11:04:03;100561.59;;;7.91;31.64
70916;BME280;58557;50.982;-3.222;2022-12-15T11:06:31;100561.92;;;7.19;33.30
70916;BME280;58557;50.982;-3.222;2022-12-15T11:08:56;100557.87;;;8.44;29.76
70916;BME280;58557;50.982;-3.222;2022-12-15T11:11:25;100557.42;;;7.94;31.66
70916;BME280;58557;50.982;-3.222;2022-12-15T11:16:14;100552.14;;;8.11;30.74
70916;BME280;58557;50.982;-3.222;2022-12-15T11:18:40;100551.87;;;7.82;32.56
70916;BME280;58557;50.982;-3.222;2022-12-15T11:21:06;100553.48;;;7.53;32.06
70916;BME280;58557;50.982;-3.222;2022-12-15T11:23:37;100554.82;;;8.20;30.65
70916;BME280;58557;50.982;-3.222;2022-12-15T11:25:57;100553.81;;;7.69;32.39
70916;BME280;58557;50.982;-3.222;2022-12-15T11:28:21;100551.43;;;8.05;30.55
70916;BME280;58557;50.982;-3.222;2022-12-15T11:30:48;100550.83;;;7.71;32.02
70916;BME280;58557;50.982;-3.222;2022-12-15T11:33:09;100552.31;;;6.84;32.08
70916;BME280;58557;50.982;-3.222;2022-12-15T11:35:47;100554.57;;;6.34;33.61
70916;BME280;58557;50.982;-3.222;2022-12-15T11:38:04;100554.08;;;5.17;35.38
70916;BME280;58557;50.982;-3.222;2022-12-15T11:40:33;100554.00;;;5.72;35.30
70916;BME280;58557;50.982;-3.222;2022-12-15T11:43:00;100551.71;;;6.00;35.75
70916;BME280;58557;50.982;-3.222;2022-12-15T11:45:21;100549.71;;;6.53;34.40
70916;BME280;58557;50.982;-3.222;2022-12-15T11:47:45;100546.60;;;4.69;37.20
70916;BME280;58557;50.982;-3.222;2022-12-15T11:50:18;100544.08;;;6.18;35.70
70916;BME280;58557;50.982;-3.222;2022-12-15T11:52:51;100544.75;;;5.94;35.51
70916;BME280;58557;50.982;-3.222;2022-12-15T11:55:04;100542.74;;;6.25;35.16
70916;BME280;58557;50.982;-3.222;2022-12-15T11:57:41;100542.05;;;5.83;36.17
70916;BME280;58557;50.982;-3.222;2022-12-15T11:59:58;100542.21;;;6.55;34.79
70916;BME280;58557;50.982;-3.222;2022-12-15T12:02:26;100536.28;;;6.79;33.33
70916;BME280;58557;50.982;-3.222;2022-12-15T12:04:47;100539.29;;;6.72;32.86
70916;BME280;58557;50.982;-3.222;2022-12-15T12:07:10;100537.89;;;6.59;34.06
70916;BME280;58557;50.982;-3.222;2022-12-15T12:09:32;100533.82;;;7.03;33.38
70916;BME280;58557;50.982;-3.222;2022-12-15T12:12:03;100537.74;;;6.60;33.96
70916;BME280;58557;50.982;-3.222;2022-12-15T12:14:32;100541.40;;;6.69;35.33
70916;BME280;58557;50.982;-3.222;2022-12-15T12:16:52;100542.62;;;6.22;36.78
70916;BME280;58557;50.982;-3.222;2022-12-15T12:19:16;100542.86;;;6.42;35.69
70916;BME280;58557;50.982;-3.222;2022-12-15T12:21:41;100541.98;;;6.65;34.65
70916;BME280;58557;50.982;-3.222;2022-12-15T12:24:10;100546.05;;;6.39;35.80
70916;BME280;58557;50.982;-3.222;2022-12-15T12:26:34;100545.06;;;6.80;35.18
70916;BME280;58557;50.982;-3.222;2022-12-15T12:28:59;100544.83;;;6.90;35.08
70916;BME280;58557;50.982;-3.222;2022-12-15T12:31:25;100547.84;;;6.11;37.00
70916;BME280;58557;50.982;-3.222;2022-12-15T12:33:48;100543.03;;;5.54;36.97
70916;BME280;58557;50.982;-3.222;2022-12-15T12:36:11;100544.75;;;5.35;38.10
70916;BME280;58557;50.982;-3.222;2022-12-15T12:38:37;100545.07;;;5.51;37.65
70916;BME280;58557;50.982;-3.222;2022-12-15T12:41:03;100546.09;;;4.26;40.08